sensor_id;sensor_type;location;lat;lon;timestamp;temperature;humidity
15997;DHT22;8103;51.340;12.326;2023-07-28T00:02:19;17.20;99.90
15997;DHT22;8103;51.340;12.326;2023-07-28T00:04:46;17.20;99.90
15997;DHT22;8103;51.340;12.326;2023-07-28T00:07:13;17.20;99.90
15997;DHT22;8103;51.340;12.326;2023-07-28T00:09:40;17.30;99.90
15997;DHT22;8103;51.340;12.326;2023-07-28T00:12:07;17.30;99.90
15997;DHT22;8103;51.340;12.326;2023-07-28T00:14:34;17.40;99.90
15997;DHT22;8103;51.340;12.326;2023-07-28T00:17:01;17.40;99.90
15997;DHT22;8103;51.340;12.326;2023-07-28T00:19:27;17.40;99.90
15997;DHT22;8103;51.340;12.326;2023-07-28T00:21:54;17.50;99.90
15997;DHT22;8103;51.340;12.326;2023-07-28T00:24:22;17.50;99.90
15997;DHT22;8103;51.340;12.326;2023-07-28T00:33:49;17.60;99.90
15997;DHT22;8103;51.340;12.326;2023-07-28T00:36:16;17.60;99.90
15997;DHT22;8103;51.340;12.326;2023-07-28T00:38:57;17.60;99.90
15997;DHT22;8103;51.340;12.326;2023-07-28T00:41:24;17.60;99.90
15997;DHT22;8103;51.340;12.326;2023-07-28T00:43:50;17.60;99.90
15997;DHT22;8103;51.340;12.326;2023-07-28T00:46:17;17.60;99.90
15997;DHT22;8103;51.340;12.326;2023-07-28T00:48:44;17.60;99.90
15997;DHT22;8103;51.340;12.326;2023-07-28T00:51:11;17.60;99.90
15997;DHT22;8103;51.340;12.326;2023-07-28T00:53:38;17.60;99.90
15997;DHT22;8103;51.340;12.326;2023-07-28T00:56:05;17.60;99.90
15997;DHT22;8103;51.340;12.326;2023-07-28T00:58:32;17.60;99.90
15997;DHT22;8103;51.340;12.326;2023-07-28T01:00:59;17.70;99.90
15997;DHT22;8103;51.340;12.326;2023-07-28T01:03:26;17.70;99.90
15997;DHT22;8103;51.340;12.326;2023-07-28T01:08:47;17.80;99.90
15997;DHT22;8103;51.340;12.326;2023-07-28T01:11:14;17.80;99.90
15997;DHT22;8103;51.340;12.326;2023-07-28T01:13:41;17.80;99.90
15997;DHT22;8103;51.340;12.326;2023-07-28T01:16:08;17.80;99.90
15997;DHT22;8103;51.340;12.326;2023-07-28T01:18:35;17.90;99.90
15997;DHT22;8103;51.340;12.326;2023-07-28T01:21:05;17.90;99.90
15997;DHT22;8103;51.340;12.326;2023-07-28T01:28:59;17.80;99.90
15997;DHT22;8103;51.340;12.326;2023-07-28T01:31:27;17.80;99.90
15997;DHT22;8103;51.340;12.326;2023-07-28T01:33:54;17.80;99.90
15997;DHT22;8103;51.340;12.326;2023-07-28T01:36:20;17.90;99.90
15997;DHT22;8103;51.340;12.326;2023-07-28T01:38:47;17.90;99.90
15997;DHT22;8103;51.340;12.326;2023-07-28T01:41:14;17.90;99.90
15997;DHT22;8103;51.340;12.326;2023-07-28T01:43:40;17.80;99.90
15997;DHT22;8103;51.340;12.326;2023-07-28T01:46:08;17.90;99.90
15997;DHT22;8103;51.340;12.326;2023-07-28T01:48:35;17.90;99.90
15997;DHT22;8103;51.340;12.326;2023-07-28T01:51:02;17.90;99.90
15997;DHT22;8103;51.340;12.326;2023-07-28T01:53:28;17.90;99.90
15997;DHT22;8103;51.340;12.326;2023-07-28T01:55:55;17.90;99.90
15997;DHT22;8103;51.340;12.326;2023-07-28T01:58:22;17.90;99.90
15997;DHT22;8103;51.340;12.326;2023-07-28T02:00:49;17.90;99.90
15997;DHT22;8103;51.340;12.326;2023-07-28T02:03:16;17.90;99.90
15997;DHT22;8103;51.340;12.326;2023-07-28T02:05:42;17.90;99.90
15997;DHT22;8103;51.340;12.326;2023-07-28T02:08:11;17.90;99.90
15997;DHT22;8103;51.340;12.326;2023-07-28T02:10:37;17.80;99.90
15997;DHT22;8103;51.340;12.326;2023-07-28T02:13:04;17.80;99.90
15997;DHT22;8103;51.340;12.326;2023-07-28T02:15:31;17.80;99.90
15997;DHT22;8103;51.340;12.326;2023-07-28T02:17:57;17.80;99.90
15997;DHT22;8103;51.340;12.326;2023-07-28T02:20:24;17.80;99.90
15997;DHT22;8103;51.340;12.326;2023-07-28T02:22:51;17.80;99.90
15997;DHT22;8103;51.340;12.326;2023-07-28T02:25:18;17.80;99.90
15997;DHT22;8103;51.340;12.326;2023-07-28T02:27:44;17.80;99.90
15997;DHT22;8103;51.340;12.326;2023-07-28T02:30:11;17.80;99.90
15997;DHT22;8103;51.340;12.326;2023-07-28T02:32:38;17.80;99.90
15997;DHT22;8103;51.340;12.326;2023-07-28T02:35:05;17.80;99.90
15997;DHT22;8103;51.340;12.326;2023-07-28T02:37:32;17.80;99.90
15997;DHT22;8103;51.340;12.326;2023-07-28T02:39:58;17.80;99.90
15997;DHT22;8103;51.340;12.326;2023-07-28T02:42:25;17.80;99.90
15997;DHT22;8103;51.340;12.326;2023-07-28T02:44:53;17.80;99.90
15997;DHT22;8103;51.340;12.326;2023-07-28T02:47:19;17.80;99.90
15997;DHT22;8103;51.340;12.326;2023-07-28T02:49:46;17.90;99.90
15997;DHT22;8103;51.340;12.326;2023-07-28T02:52:13;17.90;99.90
15997;DHT22;8103;51.340;12.326;2023-07-28T02:54:40;17.90;99.90
15997;DHT22;8103;51.340;12.326;2023-07-28T02:57:07;17.90;99.90
15997;DHT22;8103;51.340;12.326;2023-07-28T02:59:34;17.90;99.90
15997;DHT22;8103;51.340;12.326;2023-07-28T03:02:00;17.90;99.90
15997;DHT22;8103;51.340;12.326;2023-07-28T03:04:27;17.90;99.90
15997;DHT22;8103;51.340;12.326;2023-07-28T03:06:54;17.90;99.90
15997;DHT22;8103;51.340;12.326;2023-07-28T03:09:21;17.90;99.90
15997;DHT22;8103;51.340;12.326;2023-07-28T03:11:47;17.90;99.90
15997;DHT22;8103;51.340;12.326;2023-07-28T03:14:14;17.90;99.90
15997;DHT22;8103;51.340;12.326;2023-07-28T03:16:42;17.90;99.90
15997;DHT22;8103;51.340;12.326;2023-07-28T03:19:08;17.90;99.90
15997;DHT22;8103;51.340;12.326;2023-07-28T03:21:35;17.90;99.90
15997;DHT22;8103;51.340;12.326;2023-07-28T03:24:05;17.90;99.90
15997;DHT22;8103;51.340;12.326;2023-07-28T03:26:32;17.90;99.90
15997;DHT22;8103;51.340;12.326;2023-07-28T03:28:59;17.90;99.90
15997;DHT22;8103;51.340;12.326;2023-07-28T03:31:26;17.90;99.90
15997;DHT22;8103;51.340;12.326;2023-07-28T03:33:52;17.90;99.90
15997;DHT22;8103;51.340;12.326;2023-07-28T03:36:19;17.90;99.90
15997;DHT22;8103;51.340;12.326;2023-07-28T03:38:46;17.90;99.90
15997;DHT22;8103;51.340;12.326;2023-07-28T03:41:13;17.90;99.90
15997;DHT22;8103;51.340;12.326;2023-07-28T03:43:40;17.90;99.90
15997;DHT22;8103;51.340;12.326;2023-07-28T03:46:07;17.90;99.90
15997;DHT22;8103;51.340;12.326;2023-07-28T03:48:34;17.90;99.90
15997;DHT22;8103;51.340;12.326;2023-07-28T03:51:01;17.90;99.90
15997;DHT22;8103;51.340;12.326;2023-07-28T03:53:28;17.90;99.90
15997;DHT22;8103;51.340;12.326;2023-07-28T03:55:55;17.90;99.90
15997;DHT22;8103;51.340;12.326;2023-07-28T03:58:27;17.90;99.90
15997;DHT22;8103;51.340;12.326;2023-07-28T04:00:54;17.90;99.90
15997;DHT22;8103;51.340;12.326;2023-07-28T04:03:20;17.90;99.90
15997;DHT22;8103;51.340;12.326;2023-07-28T04:05:47;17.90;99.90
15997;DHT22;8103;51.340;12.326;2023-07-28T04:08:14;17.90;99.90
15997;DHT22;8103;51.340;12.326;2023-07-28T04:10:41;17.90;99.90
15997;DHT22;8103;51.340;12.326;2023-07-28T04:13:08;17.90;99.90
15997;DHT22;8103;51.340;12.326;2023-07-28T04:15:35;17.80;99.90
15997;DHT22;8103;51.340;12.326;2023-07-28T04:18:02;17.90;99.90
15997;DHT22;8103;51.340;12.326;2023-07-28T04:20:29;17.90;99.90
15997;DHT22;8103;51.340;12.326;2023-07-28T04:22:56;17.90;99.90
15997;DHT22;8103;51.340;12.326;2023-07-28T04:25:22;17.90;99.90
15997;DHT22;8103;51.340;12.326;2023-07-28T04:27:49;17.90;99.90
15997;DHT22;8103;51.340;12.326;2023-07-28T04:30:16;17.90;99.90
15997;DHT22;8103;51.340;12.326;2023-07-28T04:32:43;17.90;99.90
15997;DHT22;8103;51.340;12.326;2023-07-28T04:35:10;17.90;99.90
15997;DHT22;8103;51.340;12.326;2023-07-28T04:37:36;17.90;99.90
15997;DHT22;8103;51.340;12.326;2023-07-28T04:40:04;17.90;99.90
15997;DHT22;8103;51.340;12.326;2023-07-28T04:42:31;17.90;99.90
15997;DHT22;8103;51.340;12.326;2023-07-28T04:44:57;17.80;99.90
15997;DHT22;8103;51.340;12.326;2023-07-28T04:47:24;17.70;99.90
15997;DHT22;8103;51.340;12.326;2023-07-28T04:49:51;17.70;99.90
15997;DHT22;8103;51.340;12.326;2023-07-28T04:52:18;17.60;99.90
15997;DHT22;8103;51.340;12.326;2023-07-28T04:54:45;17.60;99.90
15997;DHT22;8103;51.340;12.326;2023-07-28T04:57:12;17.60;99.90
15997;DHT22;8103;51.340;12.326;2023-07-28T04:59:41;17.60;99.90
15997;DHT22;8103;51.340;12.326;2023-07-28T05:02:09;17.70;99.90
15997;DHT22;8103;51.340;12.326;2023-07-28T05:04:35;17.80;99.90
15997;DHT22;8103;51.340;12.326;2023-07-28T05:07:04;17.80;99.90
15997;DHT22;8103;51.340;12.326;2023-07-28T05:09:30;17.90;99.90
15997;DHT22;8103;51.340;12.326;2023-07-28T05:11:57;17.90;99.90
15997;DHT22;8103;51.340;12.326;2023-07-28T05:14:24;17.90;99.90
15997;DHT22;8103;51.340;12.326;2023-07-28T05:16:50;17.90;99.90
15997;DHT22;8103;51.340;12.326;2023-07-28T05:19:17;18.00;99.90
15997;DHT22;8103;51.340;12.326;2023-07-28T05:21:44;18.00;99.90
15997;DHT22;8103;51.340;12.326;2023-07-28T05:24:10;18.00;99.90
15997;DHT22;8103;51.340;12.326;2023-07-28T05:26:37;18.10;99.90
15997;DHT22;8103;51.340;12.326;2023-07-28T05:29:04;18.20;99.90
15997;DHT22;8103;51.340;12.326;2023-07-28T05:31:30;18.20;99.90
15997;DHT22;8103;51.340;12.326;2023-07-28T05:33:57;18.30;99.90
15997;DHT22;8103;51.340;12.326;2023-07-28T05:36:24;18.30;99.90
15997;DHT22;8103;51.340;12.326;2023-07-28T05:38:51;18.40;99.90
15997;DHT22;8103;51.340;12.326;2023-07-28T05:41:20;18.40;99.90
15997;DHT22;8103;51.340;12.326;2023-07-28T05:43:46;18.50;99.90
15997;DHT22;8103;51.340;12.326;2023-07-28T05:46:16;18.50;99.90
15997;DHT22;8103;51.340;12.326;2023-07-28T05:48:43;18.50;99.90
15997;DHT22;8103;51.340;12.326;2023-07-28T05:51:09;18.60;99.90
15997;DHT22;8103;51.340;12.326;2023-07-28T05:53:36;18.60;99.90
15997;DHT22;8103;51.340;12.326;2023-07-28T05:56:03;18.60;99.90
15997;DHT22;8103;51.340;12.326;2023-07-28T05:58:29;18.60;99.90
15997;DHT22;8103;51.340;12.326;2023-07-28T06:00:56;18.70;99.90
15997;DHT22;8103;51.340;12.326;2023-07-28T06:03:23;18.80;99.90
15997;DHT22;8103;51.340;12.326;2023-07-28T06:05:50;18.90;99.90
15997;DHT22;8103;51.340;12.326;2023-07-28T06:08:17;19.00;99.90
15997;DHT22;8103;51.340;12.326;2023-07-28T06:10:44;19.10;99.90
15997;DHT22;8103;51.340;12.326;2023-07-28T06:13:10;19.10;99.90
15997;DHT22;8103;51.340;12.326;2023-07-28T06:15:39;19.10;99.90
15997;DHT22;8103;51.340;12.326;2023-07-28T06:18:06;19.10;99.90
15997;DHT22;8103;51.340;12.326;2023-07-28T06:20:32;19.20;99.90
15997;DHT22;8103;51.340;12.326;2023-07-28T06:23:01;19.50;99.90
15997;DHT22;8103;51.340;12.326;2023-07-28T06:25:28;19.70;99.90
15997;DHT22;8103;51.340;12.326;2023-07-28T06:27:54;19.80;99.90
15997;DHT22;8103;51.340;12.326;2023-07-28T06:30:21;19.80;99.90
15997;DHT22;8103;51.340;12.326;2023-07-28T06:32:48;19.80;99.90
15997;DHT22;8103;51.340;12.326;2023-07-28T06:35:15;19.90;99.90
15997;DHT22;8103;51.340;12.326;2023-07-28T06:37:42;19.90;99.90
15997;DHT22;8103;51.340;12.326;2023-07-28T06:40:09;20.00;99.90
15997;DHT22;8103;51.340;12.326;2023-07-28T06:42:36;20.10;99.90
15997;DHT22;8103;51.340;12.326;2023-07-28T06:45:03;20.00;99.90
15997;DHT22;8103;51.340;12.326;2023-07-28T06:47:30;20.00;99.90
15997;DHT22;8103;51.340;12.326;2023-07-28T06:49:57;20.10;99.90
15997;DHT22;8103;51.340;12.326;2023-07-28T06:56:05;20.50;99.90
15997;DHT22;8103;51.340;12.326;2023-07-28T06:58:32;20.70;99.90
15997;DHT22;8103;51.340;12.326;2023-07-28T07:00:58;20.80;99.90
15997;DHT22;8103;51.340;12.326;2023-07-28T07:03:25;20.90;99.90
15997;DHT22;8103;51.340;12.326;2023-07-28T07:05:52;21.10;99.90
15997;DHT22;8103;51.340;12.326;2023-07-28T07:08:18;21.30;99.90
15997;DHT22;8103;51.340;12.326;2023-07-28T07:10:49;21.50;99.90
15997;DHT22;8103;51.340;12.326;2023-07-28T07:13:19;21.70;99.90
15997;DHT22;8103;51.340;12.326;2023-07-28T07:15:46;21.90;99.90
15997;DHT22;8103;51.340;12.326;2023-07-28T07:18:16;22.10;99.90
15997;DHT22;8103;51.340;12.326;2023-07-28T07:20:51;22.30;99.90
15997;DHT22;8103;51.340;12.326;2023-07-28T07:23:17;22.60;99.90
15997;DHT22;8103;51.340;12.326;2023-07-28T07:25:44;22.80;99.90
15997;DHT22;8103;51.340;12.326;2023-07-28T07:28:11;22.90;99.90
15997;DHT22;8103;51.340;12.326;2023-07-28T07:30:38;22.90;99.90
15997;DHT22;8103;51.340;12.326;2023-07-28T07:33:08;22.90;99.90
15997;DHT22;8103;51.340;12.326;2023-07-28T07:35:37;23.00;99.90
15997;DHT22;8103;51.340;12.326;2023-07-28T07:38:05;23.10;99.90
15997;DHT22;8103;51.340;12.326;2023-07-28T07:40:37;23.20;99.90
15997;DHT22;8103;51.340;12.326;2023-07-28T07:43:04;23.30;99.70
15997;DHT22;8103;51.340;12.326;2023-07-28T07:45:31;23.30;99.40
15997;DHT22;8103;51.340;12.326;2023-07-28T07:48:05;23.30;99.10
15997;DHT22;8103;51.340;12.326;2023-07-28T07:50:32;23.30;99.10
15997;DHT22;8103;51.340;12.326;2023-07-28T07:52:59;23.30;98.40
15997;DHT22;8103;51.340;12.326;2023-07-28T07:55:27;23.30;98.50
15997;DHT22;8103;51.340;12.326;2023-07-28T07:57:54;23.20;98.30
15997;DHT22;8103;51.340;12.326;2023-07-28T08:00:21;23.20;98.40
15997;DHT22;8103;51.340;12.326;2023-07-28T08:02:51;23.10;98.40
15997;DHT22;8103;51.340;12.326;2023-07-28T08:05:18;23.30;98.40
15997;DHT22;8103;51.340;12.326;2023-07-28T08:07:44;23.20;97.90
15997;DHT22;8103;51.340;12.326;2023-07-28T08:10:11;23.30;97.50
15997;DHT22;8103;51.340;12.326;2023-07-28T08:12:38;23.30;97.40
15997;DHT22;8103;51.340;12.326;2023-07-28T08:15:05;23.30;97.20
15997;DHT22;8103;51.340;12.326;2023-07-28T08:17:32;23.20;96.90
15997;DHT22;8103;51.340;12.326;2023-07-28T08:20:04;23.30;97.30
15997;DHT22;8103;51.340;12.326;2023-07-28T08:22:31;23.30;96.90
15997;DHT22;8103;51.340;12.326;2023-07-28T08:24:57;23.40;96.90
15997;DHT22;8103;51.340;12.326;2023-07-28T08:27:25;23.40;96.50
15997;DHT22;8103;51.340;12.326;2023-07-28T08:29:51;23.40;96.60
15997;DHT22;8103;51.340;12.326;2023-07-28T08:32:18;23.40;96.60
15997;DHT22;8103;51.340;12.326;2023-07-28T08:34:46;23.50;96.50
15997;DHT22;8103;51.340;12.326;2023-07-28T08:37:13;23.50;96.40
15997;DHT22;8103;51.340;12.326;2023-07-28T08:39:40;23.50;95.70
15997;DHT22;8103;51.340;12.326;2023-07-28T08:42:07;23.40;95.20
15997;DHT22;8103;51.340;12.326;2023-07-28T08:44:34;23.30;95.60
15997;DHT22;8103;51.340;12.326;2023-07-28T08:47:05;23.20;95.90
15997;DHT22;8103;51.340;12.326;2023-07-28T08:49:32;23.10;96.10
15997;DHT22;8103;51.340;12.326;2023-07-28T08:52:00;23.10;96.20
15997;DHT22;8103;51.340;12.326;2023-07-28T08:54:28;23.30;96.60
15997;DHT22;8103;51.340;12.326;2023-07-28T08:56:56;23.30;96.00
15997;DHT22;8103;51.340;12.326;2023-07-28T08:59:26;23.30;96.20
15997;DHT22;8103;51.340;12.326;2023-07-28T09:01:55;23.40;96.30
15997;DHT22;8103;51.340;12.326;2023-07-28T09:04:22;23.60;96.30
15997;DHT22;8103;51.340;12.326;2023-07-28T09:06:50;23.90;95.40
15997;DHT22;8103;51.340;12.326;2023-07-28T09:09:20;24.40;94.80
15997;DHT22;8103;51.340;12.326;2023-07-28T09:11:52;24.60;93.70
15997;DHT22;8103;51.340;12.326;2023-07-28T09:14:21;24.70;92.70
15997;DHT22;8103;51.340;12.326;2023-07-28T09:16:50;25.10;93.10
15997;DHT22;8103;51.340;12.326;2023-07-28T09:19:17;25.50;92.00
15997;DHT22;8103;51.340;12.326;2023-07-28T09:21:44;25.90;90.30
15997;DHT22;8103;51.340;12.326;2023-07-28T09:24:14;26.00;89.50
15997;DHT22;8103;51.340;12.326;2023-07-28T09:26:46;26.40;88.40
15997;DHT22;8103;51.340;12.326;2023-07-28T09:29:14;26.80;86.40
15997;DHT22;8103;51.340;12.326;2023-07-28T09:31:46;26.90;84.80
15997;DHT22;8103;51.340;12.326;2023-07-28T09:34:22;27.30;82.30
15997;DHT22;8103;51.340;12.326;2023-07-28T09:36:49;27.60;79.60
15997;DHT22;8103;51.340;12.326;2023-07-28T09:39:19;27.50;79.90
15997;DHT22;8103;51.340;12.326;2023-07-28T09:41:48;27.40;79.60
15997;DHT22;8103;51.340;12.326;2023-07-28T09:44:15;27.30;79.60
15997;DHT22;8103;51.340;12.326;2023-07-28T09:46:56;27.30;79.40
15997;DHT22;8103;51.340;12.326;2023-07-28T09:49:39;27.10;78.20
15997;DHT22;8103;51.340;12.326;2023-07-28T09:52:09;26.90;79.10
15997;DHT22;8103;51.340;12.326;2023-07-28T09:54:41;26.50;80.30
15997;DHT22;8103;51.340;12.326;2023-07-28T09:57:12;26.10;81.20
15997;DHT22;8103;51.340;12.326;2023-07-28T09:59:41;25.90;82.40
15997;DHT22;8103;51.340;12.326;2023-07-28T10:02:09;26.00;83.00
15997;DHT22;8103;51.340;12.326;2023-07-28T10:04:37;26.20;81.60
15997;DHT22;8103;51.340;12.326;2023-07-28T10:07:05;26.20;80.60
15997;DHT22;8103;51.340;12.326;2023-07-28T10:09:32;26.20;81.50
15997;DHT22;8103;51.340;12.326;2023-07-28T10:15:50;27.60;76.60
15997;DHT22;8103;51.340;12.326;2023-07-28T10:18:21;28.70;70.70
15997;DHT22;8103;51.340;12.326;2023-07-28T10:20:49;28.90;68.50
15997;DHT22;8103;51.340;12.326;2023-07-28T10:23:22;29.00;67.20
15997;DHT22;8103;51.340;12.326;2023-07-28T10:25:57;29.00;67.40
15997;DHT22;8103;51.340;12.326;2023-07-28T10:28:37;29.20;66.00
15997;DHT22;8103;51.340;12.326;2023-07-28T10:31:11;29.70;63.10
15997;DHT22;8103;51.340;12.326;2023-07-28T10:33:40;30.00;62.10
15997;DHT22;8103;51.340;12.326;2023-07-28T10:39:13;30.50;60.80
15997;DHT22;8103;51.340;12.326;2023-07-28T10:42:04;31.70;57.80
15997;DHT22;8103;51.340;12.326;2023-07-28T10:44:31;32.50;54.40
15997;DHT22;8103;51.340;12.326;2023-07-28T10:46:58;33.00;53.60
15997;DHT22;8103;51.340;12.326;2023-07-28T10:49:25;33.00;52.50
15997;DHT22;8103;51.340;12.326;2023-07-28T10:51:53;33.30;51.90
15997;DHT22;8103;51.340;12.326;2023-07-28T10:54:20;34.30;49.10
15997;DHT22;8103;51.340;12.326;2023-07-28T10:56:50;33.70;49.30
15997;DHT22;8103;51.340;12.326;2023-07-28T10:59:17;33.10;50.20
15997;DHT22;8103;51.340;12.326;2023-07-28T11:01:43;32.20;51.50
15997;DHT22;8103;51.340;12.326;2023-07-28T11:04:20;30.90;54.30
15997;DHT22;8103;51.340;12.326;2023-07-28T11:06:50;29.90;57.20
15997;DHT22;8103;51.340;12.326;2023-07-28T11:09:21;29.10;59.20
15997;DHT22;8103;51.340;12.326;2023-07-28T11:11:49;28.40;61.60
15997;DHT22;8103;51.340;12.326;2023-07-28T11:14:17;27.70;63.70
15997;DHT22;8103;51.340;12.326;2023-07-28T11:16:45;27.20;66.00
15997;DHT22;8103;51.340;12.326;2023-07-28T11:19:14;27.00;67.70
15997;DHT22;8103;51.340;12.326;2023-07-28T11:21:42;27.00;68.30
15997;DHT22;8103;51.340;12.326;2023-07-28T11:24:10;26.90;68.00
15997;DHT22;8103;51.340;12.326;2023-07-28T11:26:38;26.80;68.70
15997;DHT22;8103;51.340;12.326;2023-07-28T11:29:05;26.60;69.30
15997;DHT22;8103;51.340;12.326;2023-07-28T11:31:32;26.40;70.10
15997;DHT22;8103;51.340;12.326;2023-07-28T11:34:00;26.10;71.10
15997;DHT22;8103;51.340;12.326;2023-07-28T11:36:29;26.10;72.20
15997;DHT22;8103;51.340;12.326;2023-07-28T11:38:59;26.50;71.80
15997;DHT22;8103;51.340;12.326;2023-07-28T11:41:26;27.00;69.60
15997;DHT22;8103;51.340;12.326;2023-07-28T11:43:53;27.90;68.10
15997;DHT22;8103;51.340;12.326;2023-07-28T11:46:40;28.90;65.10
15997;DHT22;8103;51.340;12.326;2023-07-28T11:49:14;30.80;59.30
15997;DHT22;8103;51.340;12.326;2023-07-28T11:51:54;31.10;57.10
15997;DHT22;8103;51.340;12.326;2023-07-28T11:54:23;30.60;57.70
15997;DHT22;8103;51.340;12.326;2023-07-28T11:56:53;30.30;58.50
15997;DHT22;8103;51.340;12.326;2023-07-28T11:59:21;30.90;59.20
15997;DHT22;8103;51.340;12.326;2023-07-28T12:02:01;33.30;54.10
15997;DHT22;8103;51.340;12.326;2023-07-28T12:04:35;34.30;51.00
15997;DHT22;8103;51.340;12.326;2023-07-28T12:07:11;35.00;48.70
15997;DHT22;8103;51.340;12.326;2023-07-28T12:09:48;34.70;48.30
15997;DHT22;8103;51.340;12.326;2023-07-28T12:12:29;34.40;48.60
15997;DHT22;8103;51.340;12.326;2023-07-28T12:14:57;35.30;48.20
15997;DHT22;8103;51.340;12.326;2023-07-28T12:17:33;37.30;44.10
15997;DHT22;8103;51.340;12.326;2023-07-28T12:20:07;38.80;41.10
15997;DHT22;8103;51.340;12.326;2023-07-28T12:22:39;38.90;39.40
15997;DHT22;8103;51.340;12.326;2023-07-28T12:25:06;37.40;40.60
15997;DHT22;8103;51.340;12.326;2023-07-28T12:27:33;37.00;42.60
15997;DHT22;8103;51.340;12.326;2023-07-28T12:30:00;37.40;41.80
15997;DHT22;8103;51.340;12.326;2023-07-28T12:32:29;36.70;42.30
15997;DHT22;8103;51.340;12.326;2023-07-28T12:34:59;35.10;44.30
15997;DHT22;8103;51.340;12.326;2023-07-28T12:37:39;33.50;47.40
15997;DHT22;8103;51.340;12.326;2023-07-28T12:40:10;32.50;49.70
15997;DHT22;8103;51.340;12.326;2023-07-28T12:42:59;32.40;51.10
15997;DHT22;8103;51.340;12.326;2023-07-28T12:45:31;32.20;51.20
15997;DHT22;8103;51.340;12.326;2023-07-28T12:48:01;31.40;52.70
15997;DHT22;8103;51.340;12.326;2023-07-28T12:50:28;30.40;54.80
15997;DHT22;8103;51.340;12.326;2023-07-28T12:53:06;29.60;56.50
15997;DHT22;8103;51.340;12.326;2023-07-28T12:55:41;29.30;58.60
15997;DHT22;8103;51.340;12.326;2023-07-28T12:58:26;30.40;58.10
15997;DHT22;8103;51.340;12.326;2023-07-28T13:00:55;33.40;53.30
15997;DHT22;8103;51.340;12.326;2023-07-28T13:03:27;36.00;46.60
15997;DHT22;8103;51.340;12.326;2023-07-28T13:05:54;36.60;44.20
15997;DHT22;8103;51.340;12.326;2023-07-28T13:08:21;36.40;43.60
15997;DHT22;8103;51.340;12.326;2023-07-28T13:11:07;35.80;44.60
15997;DHT22;8103;51.340;12.326;2023-07-28T13:13:37;35.90;44.80
15997;DHT22;8103;51.340;12.326;2023-07-28T13:16:05;36.60;43.60
15997;DHT22;8103;51.340;12.326;2023-07-28T13:18:34;36.50;43.50
15997;DHT22;8103;51.340;12.326;2023-07-28T13:21:01;36.60;43.00
15997;DHT22;8103;51.340;12.326;2023-07-28T13:23:29;36.60;42.30
15997;DHT22;8103;51.340;12.326;2023-07-28T13:25:56;35.40;43.50
15997;DHT22;8103;51.340;12.326;2023-07-28T13:28:23;33.90;46.00
15997;DHT22;8103;51.340;12.326;2023-07-28T13:30:51;32.40;48.40
15997;DHT22;8103;51.340;12.326;2023-07-28T13:33:18;31.20;51.20
15997;DHT22;8103;51.340;12.326;2023-07-28T13:35:45;30.40;53.10
15997;DHT22;8103;51.340;12.326;2023-07-28T13:38:12;29.70;55.10
15997;DHT22;8103;51.340;12.326;2023-07-28T13:40:38;29.30;55.60
15997;DHT22;8103;51.340;12.326;2023-07-28T13:43:05;28.90;55.90
15997;DHT22;8103;51.340;12.326;2023-07-28T13:45:32;28.60;56.30
15997;DHT22;8103;51.340;12.326;2023-07-28T13:47:59;29.50;56.30
15997;DHT22;8103;51.340;12.326;2023-07-28T13:50:26;31.60;52.50
15997;DHT22;8103;51.340;12.326;2023-07-28T13:52:55;34.40;47.30
15997;DHT22;8103;51.340;12.326;2023-07-28T13:55:23;37.00;42.70
15997;DHT22;8103;51.340;12.326;2023-07-28T13:58:06;38.30;39.10
15997;DHT22;8103;51.340;12.326;2023-07-28T14:00:33;38.10;38.50
15997;DHT22;8103;51.340;12.326;2023-07-28T14:03:00;37.90;39.20
15997;DHT22;8103;51.340;12.326;2023-07-28T14:05:27;38.80;37.80
15997;DHT22;8103;51.340;12.326;2023-07-28T14:07:54;41.10;34.30
15997;DHT22;8103;51.340;12.326;2023-07-28T14:10:21;41.30;34.00
15997;DHT22;8103;51.340;12.326;2023-07-28T14:12:47;42.00;33.00
15997;DHT22;8103;51.340;12.326;2023-07-28T14:15:15;42.10;32.30
15997;DHT22;8103;51.340;12.326;2023-07-28T14:17:42;42.70;31.10
15997;DHT22;8103;51.340;12.326;2023-07-28T14:20:09;42.40;31.20
15997;DHT22;8103;51.340;12.326;2023-07-28T14:22:37;41.80;31.10
15997;DHT22;8103;51.340;12.326;2023-07-28T14:25:04;41.10;32.30
15997;DHT22;8103;51.340;12.326;2023-07-28T14:27:31;40.50;32.80
15997;DHT22;8103;51.340;12.326;2023-07-28T14:29:58;40.20;33.10
15997;DHT22;8103;51.340;12.326;2023-07-28T14:32:24;39.80;33.90
15997;DHT22;8103;51.340;12.326;2023-07-28T14:34:51;40.10;33.70
15997;DHT22;8103;51.340;12.326;2023-07-28T14:37:18;41.00;32.70
15997;DHT22;8103;51.340;12.326;2023-07-28T14:39:45;41.50;32.00
15997;DHT22;8103;51.340;12.326;2023-07-28T14:42:11;41.30;31.60
15997;DHT22;8103;51.340;12.326;2023-07-28T14:44:38;40.80;31.90
15997;DHT22;8103;51.340;12.326;2023-07-28T14:47:05;40.00;33.00
15997;DHT22;8103;51.340;12.326;2023-07-28T14:49:32;38.60;34.80
15997;DHT22;8103;51.340;12.326;2023-07-28T14:51:59;36.90;37.00
15997;DHT22;8103;51.340;12.326;2023-07-28T14:54:25;35.50;38.80
15997;DHT22;8103;51.340;12.326;2023-07-28T14:56:52;35.10;39.60
15997;DHT22;8103;51.340;12.326;2023-07-28T14:59:19;34.40;40.50
15997;DHT22;8103;51.340;12.326;2023-07-28T15:01:46;33.80;42.20
15997;DHT22;8103;51.340;12.326;2023-07-28T15:04:13;32.90;44.00
15997;DHT22;8103;51.340;12.326;2023-07-28T15:06:41;32.20;45.90
15997;DHT22;8103;51.340;12.326;2023-07-28T15:09:10;32.00;46.80
15997;DHT22;8103;51.340;12.326;2023-07-28T15:11:39;31.70;47.40
15997;DHT22;8103;51.340;12.326;2023-07-28T15:14:05;31.80;47.60
15997;DHT22;8103;51.340;12.326;2023-07-28T15:16:33;32.10;47.20
15997;DHT22;8103;51.340;12.326;2023-07-28T15:19:00;32.50;46.50
15997;DHT22;8103;51.340;12.326;2023-07-28T15:25:14;31.90;47.00
15997;DHT22;8103;51.340;12.326;2023-07-28T15:27:41;33.00;46.40
15997;DHT22;8103;51.340;12.326;2023-07-28T15:30:09;33.90;45.00
15997;DHT22;8103;51.340;12.326;2023-07-28T15:32:37;34.10;44.20
15997;DHT22;8103;51.340;12.326;2023-07-28T15:35:04;33.10;45.20
15997;DHT22;8103;51.340;12.326;2023-07-28T15:37:31;32.50;46.70
15997;DHT22;8103;51.340;12.326;2023-07-28T15:39:58;32.40;47.00
15997;DHT22;8103;51.340;12.326;2023-07-28T15:42:26;32.10;47.50
15997;DHT22;8103;51.340;12.326;2023-07-28T15:44:53;31.60;48.10
15997;DHT22;8103;51.340;12.326;2023-07-28T15:47:20;31.20;49.60
15997;DHT22;8103;51.340;12.326;2023-07-28T15:49:47;30.60;51.50
15997;DHT22;8103;51.340;12.326;2023-07-28T15:52:14;30.10;53.20
15997;DHT22;8103;51.340;12.326;2023-07-28T15:54:40;29.70;54.70
15997;DHT22;8103;51.340;12.326;2023-07-28T15:57:07;29.30;54.80
15997;DHT22;8103;51.340;12.326;2023-07-28T15:59:34;29.00;55.30
15997;DHT22;8103;51.340;12.326;2023-07-28T16:02:01;28.70;56.10
15997;DHT22;8103;51.340;12.326;2023-07-28T16:04:28;28.50;56.30
15997;DHT22;8103;51.340;12.326;2023-07-28T16:06:55;28.40;57.20